Time;durP1;ratioP1;P1;durP2;ratioP2;P2;SDS_P1;SDS_P2;PMS_P1;PMS_P2;Temp;Humidity;BMP_temperature;BMP_pressure;BME280_temperature;BME280_humidity;BME280_pressure;Samples;Min_cycle;Max_cycle;Signal;HPM_P1;HPM_P2
2024/04/22 00:00:51;;;;;;;16.97;10.17;;;;;;;;;;5523284;26;20271;-80
2024/04/22 00:03:22;;;;;;;15.93;8.70;;;;;;;;;;5523080;25;20352;-78
2024/04/22 00:05:54;;;;;;;20.33;12.60;;;;;;;;;;5522775;26;20279;-80
2024/04/22 00:08:23;;;;;;;14.53;6.20;;;;;;;;;;5522783;26;20601;-79
2024/04/22 00:10:58;;;;;;;6.93;3.70;;;;;;;;;;5522712;26;20277;-80
2024/04/22 00:13:27;;;;;;;12.77;5.10;;;;;;;;;;5524792;26;20762;-81
2024/04/22 00:15:53;;;;;;;14.47;5.73;;;;;;;;;;5525915;25;20228;-80
2024/04/22 00:18:25;;;;;;;17.07;6.13;;;;;;;;;;5526009;26;20282;-80
2024/04/22 00:20:51;;;;;;;14.80;6.27;;;;;;;;;;5526404;26;20220;-80
2024/04/22 00:23:20;;;;;;;13.83;4.83;;;;;;;;;;5526400;25;20278;-80
2024/04/22 00:25:46;;;;;;;9.53;3.10;;;;;;;;;;5526419;26;20710;-80
2024/04/22 00:28:15;;;;;;;15.53;5.00;;;;;;;;;;5526280;26;20236;-79
2024/04/22 00:30:41;;;;;;;11.50;3.13;;;;;;;;;;5525734;25;20641;-79
2024/04/22 00:33:11;;;;;;;7.83;2.77;;;;;;;;;;5526716;26;20282;-80
2024/04/22 00:35:40;;;;;;;6.27;2.10;;;;;;;;;;5526549;26;20280;-80
2024/04/22 00:38:09;;;;;;;7.77;2.10;;;;;;;;;;5526390;25;20310;-79
2024/04/22 00:40:35;;;;;;;6.17;1.80;;;;;;;;;;5525667;26;20227;-80
2024/04/22 00:43:04;;;;;;;8.37;2.10;;;;;;;;;;5526145;26;20230;-80
2024/04/22 00:45:32;;;;;;;6.83;1.93;;;;;;;;;;5527000;26;20223;-79
2024/04/22 00:48:01;;;;;;;10.93;2.40;;;;;;;;;;5525902;26;20320;-80
2024/04/22 00:50:27;;;;;;;6.70;2.17;;;;;;;;;;5525944;26;20748;-80
2024/04/22 00:52:59;;;;;;;5.90;2.10;;;;;;;;;;5526273;26;20666;-80
2024/04/22 00:55:26;;;;;;;10.73;2.30;;;;;;;;;;5526009;26;20267;-80
2024/04/22 00:57:56;;;;;;;7.23;2.23;;;;;;;;;;5525314;26;20282;-80
2024/04/22 01:00:23;;;;;;;7.67;2.10;;;;;;;;;;5526273;25;20571;-80
2024/04/22 01:02:54;;;;;;;7.33;2.10;;;;;;;;;;5526219;26;20238;-80
2024/04/22 01:05:21;;;;;;;9.03;2.43;;;;;;;;;;5525776;25;20225;-80
2024/04/22 01:07:50;;;;;;;9.27;2.37;;;;;;;;;;5525421;25;20235;-79
2024/04/22 01:10:20;;;;;;;7.83;2.17;;;;;;;;;;5525690;25;20223;-79
2024/04/22 01:12:49;;;;;;;6.90;2.07;;;;;;;;;;5525117;26;20227;-79
2024/04/22 01:15:15;;;;;;;7.13;2.33;;;;;;;;;;5525637;25;20277;-79
2024/04/22 01:17:45;;;;;;;8.50;2.03;;;;;;;;;;5525733;25;20617;-80
2024/04/22 01:20:11;;;;;;;9.90;2.80;;;;;;;;;;5525986;25;20266;-80
2024/04/22 01:22:43;;;;;;;7.40;2.20;;;;;;;;;;5525087;26;20227;-80
2024/04/22 01:25:10;;;;;;;9.70;2.07;;;;;;;;;;5525286;25;20570;-79
2024/04/22 01:27:39;;;;;;;6.47;2.10;;;;;;;;;;5525350;26;20246;-80
2024/04/22 01:30:06;;;;;;;8.17;2.30;;;;;;;;;;5525350;26;20218;-80
2024/04/22 01:32:35;;;;;;;8.63;2.40;;;;;;;;;;5525634;25;20270;-79
2024/04/22 01:35:03;;;;;;;7.37;2.17;;;;;;;;;;5525672;26;20273;-80
2024/04/22 01:37:32;;;;;;;10.70;2.17;;;;;;;;;;5525527;25;20226;-81
2024/04/22 01:40:03;;;;;;;8.70;2.23;;;;;;;;;;5524863;26;20265;-79
2024/04/22 01:42:30;;;;;;;7.97;1.90;;;;;;;;;;5525844;26;20277;-79
2024/04/22 01:44:58;;;;;;;6.67;2.10;;;;;;;;;;5525210;26;20230;-80
2024/04/22 01:47:25;;;;;;;7.10;2.07;;;;;;;;;;5525376;26;20222;-79
2024/04/22 01:49:54;;;;;;;8.37;2.27;;;;;;;;;;5525158;26;20281;-80
2024/04/22 01:52:20;;;;;;;11.47;2.73;;;;;;;;;;5525022;26;20895;-81
2024/04/22 01:54:49;;;;;;;8.57;1.90;;;;;;;;;;5524818;26;20285;-80
2024/04/22 01:57:18;;;;;;;9.03;2.23;;;;;;;;;;5525276;25;20605;-80
2024/04/22 01:59:47;;;;;;;7.53;2.43;;;;;;;;;;5525044;25;21082;-78
2024/04/22 02:02:13;;;;;;;7.20;2.20;;;;;;;;;;5524630;26;20265;-80
2024/04/22 02:04:42;;;;;;;7.23;2.47;;;;;;;;;;5525114;25;20230;-79
2024/04/22 02:07:08;;;;;;;7.30;2.30;;;;;;;;;;5521324;25;20265;-80
2024/04/22 02:09:37;;;;;;;6.87;2.20;;;;;;;;;;5508158;26;20231;-80
2024/04/22 02:12:03;;;;;;;8.30;2.00;;;;;;;;;;5487648;26;20230;-80
2024/04/22 02:14:35;;;;;;;10.80;2.10;;;;;;;;;;5509277;26;20322;-81
2024/04/22 02:17:01;;;;;;;8.60;2.17;;;;;;;;;;5524647;25;20283;-80
2024/04/22 02:19:30;;;;;;;6.20;1.77;;;;;;;;;;5524926;26;20233;-78
2024/04/22 02:21:56;;;;;;;8.03;2.53;;;;;;;;;;5524726;26;20222;-80
2024/04/22 02:24:25;;;;;;;9.63;2.30;;;;;;;;;;5524533;26;20352;-79
2024/04/22 02:26:51;;;;;;;6.37;1.90;;;;;;;;;;5523965;26;20272;-79
2024/04/22 02:29:20;;;;;;;6.13;2.20;;;;;;;;;;5524792;26;20275;-80
2024/04/22 02:31:49;;;;;;;7.00;2.20;;;;;;;;;;5524474;26;20214;-80
2024/04/22 02:34:18;;;;;;;9.13;2.30;;;;;;;;;;5524828;26;20801;-80
2024/04/22 02:36:44;;;;;;;10.90;2.47;;;;;;;;;;5523820;26;20607;-80
2024/04/22 02:39:13;;;;;;;9.63;2.73;;;;;;;;;;5523983;25;20250;-81
2024/04/22 02:41:39;;;;;;;6.80;2.10;;;;;;;;;;5524783;26;20240;-80
2024/04/22 02:44:08;;;;;;;7.37;2.00;;;;;;;;;;5524024;26;20233;-80
2024/04/22 02:46:35;;;;;;;7.83;2.27;;;;;;;;;;5524221;25;20265;-80
2024/04/22 02:49:06;;;;;;;6.80;2.13;;;;;;;;;;5524158;26;20280;-79
2024/04/22 02:51:32;;;;;;;5.47;2.50;;;;;;;;;;5524466;26;20260;-80
2024/04/22 02:54:01;;;;;;;11.27;2.40;;;;;;;;;;5523537;25;20268;-80
2024/04/22 02:56:27;;;;;;;8.87;2.10;;;;;;;;;;5524025;26;20222;-80
2024/04/22 02:58:56;;;;;;;8.30;2.23;;;;;;;;;;5523179;26;20806;-80
2024/04/22 03:01:22;;;;;;;9.30;2.40;;;;;;;;;;5524421;26;20258;-79
2024/04/22 03:03:51;;;;;;;6.57;2.13;;;;;;;;;;5523867;26;20224;-80
2024/04/22 03:06:20;;;;;;;8.77;2.53;;;;;;;;;;5524362;26;20264;-80
2024/04/22 03:08:49;;;;;;;7.73;2.50;;;;;;;;;;5523409;25;20233;-80
2024/04/22 03:11:15;;;;;;;6.50;2.23;;;;;;;;;;5524072;26;20225;-80
2024/04/22 03:13:44;;;;;;;6.03;2.73;;;;;;;;;;5523858;26;20233;-79
2024/04/22 03:16:11;;;;;;;7.70;2.53;;;;;;;;;;5523388;25;20600;-79
2024/04/22 03:18:40;;;;;;;5.13;2.43;;;;;;;;;;5522735;26;20679;-80
2024/04/22 03:21:06;;;;;;;6.80;2.50;;;;;;;;;;5522953;25;20260;-80
2024/04/22 03:23:37;;;;;;;7.83;2.37;;;;;;;;;;5523729;25;20996;-80
2024/04/22 03:26:04;;;;;;;8.87;2.80;;;;;;;;;;5523872;26;20264;-80
2024/04/22 03:28:33;;;;;;;6.47;2.60;;;;;;;;;;5523734;26;20587;-79
2024/04/22 03:30:59;;;;;;;8.97;2.50;;;;;;;;;;5523754;26;20764;-79
2024/04/22 03:33:28;;;;;;;8.70;2.77;;;;;;;;;;5523545;26;20286;-79
2024/04/22 03:36:00;;;;;;;8.93;2.20;;;;;;;;;;5522884;26;20260;-80
2024/04/22 03:38:28;;;;;;;9.33;2.90;;;;;;;;;;5523803;26;20225;-79
2024/04/22 03:41:00;;;;;;;8.70;2.57;;;;;;;;;;5523656;25;20236;-80
2024/04/22 03:43:29;;;;;;;7.60;2.63;;;;;;;;;;5522972;26;20233;-80
2024/04/22 03:51:24;;;;;;;8.43;2.33;;;;;;;;;;5529709;25;20740;-80
2024/04/22 03:53:53;;;;;;;7.63;2.87;;;;;;;;;;5527166;25;20260;-79
2024/04/22 03:56:24;;;;;;;9.03;2.50;;;;;;;;;;5527149;26;20210;-79
2024/04/22 03:58:53;;;;;;;10.47;2.60;;;;;;;;;;5527195;26;20222;-79
2024/04/22 04:01:22;;;;;;;8.00;2.50;;;;;;;;;;5526663;25;20734;-80
2024/04/22 04:03:48;;;;;;;8.00;2.77;;;;;;;;;;5527546;25;20222;-79
2024/04/22 04:06:17;;;;;;;9.07;2.77;;;;;;;;;;5526814;26;20369;-79
2024/04/22 04:08:43;;;;;;;10.30;2.90;;;;;;;;;;5526967;25;20264;-80
2024/04/22 04:11:12;;;;;;;7.27;2.60;;;;;;;;;;5526988;26;20266;-79
2024/04/22 04:13:43;;;;;;;7.27;2.93;;;;;;;;;;5527157;26;20286;-80
2024/04/22 04:16:14;;;;;;;9.00;3.07;;;;;;;;;;5526265;25;20232;-80
2024/04/22 04:18:41;;;;;;;7.80;2.80;;;;;;;;;;5526700;26;21105;-80
2024/04/22 04:21:10;;;;;;;9.17;3.07;;;;;;;;;;5526671;26;20226;-80
2024/04/22 04:23:36;;;;;;;10.50;2.53;;;;;;;;;;5526602;25;20242;-80
2024/04/22 04:26:05;;;;;;;10.50;3.13;;;;;;;;;;5525379;26;20238;-80
2024/04/22 04:28:31;;;;;;;8.63;3.37;;;;;;;;;;5526639;25;20230;-80
2024/04/22 04:31:01;;;;;;;8.07;2.70;;;;;;;;;;5526464;26;20291;-80
2024/04/22 04:33:30;;;;;;;9.87;3.10;;;;;;;;;;5525832;25;20252;-78
2024/04/22 04:36:02;;;;;;;10.33;3.00;;;;;;;;;;5494237;26;20791;-78
2024/04/22 04:38:28;;;;;;;7.77;3.17;;;;;;;;;;5501352;26;20278;-80
2024/04/22 04:40:57;;;;;;;8.53;2.70;;;;;;;;;;5516839;26;20285;-80
2024/04/22 04:43:26;;;;;;;8.40;2.70;;;;;;;;;;5472987;26;20273;-80
2024/04/22 04:45:52;;;;;;;9.90;3.03;;;;;;;;;;5462332;26;20227;-80
2024/04/22 04:48:21;;;;;;;7.30;2.73;;;;;;;;;;5482049;26;20239;-79
2024/04/22 04:50:50;;;;;;;7.20;2.87;;;;;;;;;;5453215;26;20230;-79
2024/04/22 04:53:20;;;;;;;10.27;3.10;;;;;;;;;;5453170;26;20233;-79
2024/04/22 04:55:46;;;;;;;8.13;2.90;;;;;;;;;;5453179;26;20269;-79
2024/04/22 04:58:15;;;;;;;8.80;3.03;;;;;;;;;;5452670;26;20278;-79
2024/04/22 05:00:42;;;;;;;9.93;3.03;;;;;;;;;;5452902;26;20219;-78
2024/04/22 05:03:11;;;;;;;9.70;2.93;;;;;;;;;;5452238;26;20240;-79
2024/04/22 05:05:37;;;;;;;5.37;2.77;;;;;;;;;;5453067;26;20269;-79
2024/04/22 05:08:09;;;;;;;10.90;3.40;;;;;;;;;;5452898;26;20231;-79
2024/04/22 05:10:35;;;;;;;7.40;3.13;;;;;;;;;;5451866;26;20756;-80
2024/04/22 05:13:04;;;;;;;11.00;3.30;;;;;;;;;;5452864;26;20228;-80
2024/04/22 05:15:30;;;;;;;8.43;2.93;;;;;;;;;;5487885;26;20238;-79
2024/04/22 05:17:59;;;;;;;6.77;3.13;;;;;;;;;;5488113;26;20772;-79
2024/04/22 05:20:29;;;;;;;10.90;3.40;;;;;;;;;;5488649;26;20269;-79
2024/04/22 05:22:58;;;;;;;10.80;3.40;;;;;;;;;;5488686;26;20338;-81
2024/04/22 05:25:27;;;;;;;12.83;3.67;;;;;;;;;;5488968;26;20221;-80
2024/04/22 05:27:56;;;;;;;10.33;3.80;;;;;;;;;;5487653;26;20341;-80
2024/04/22 05:30:22;;;;;;;11.50;3.30;;;;;;;;;;5488868;26;20226;-79
2024/04/22 05:32:51;;;;;;;11.63;3.40;;;;;;;;;;5488466;26;20572;-80
2024/04/22 05:38:05;;;;;;;10.13;3.40;;;;;;;;;;5460683;26;20286;-80
2024/04/22 05:40:36;;;;;;;9.33;3.27;;;;;;;;;;5410205;26;1114456;-80
2024/04/22 05:43:05;;;;;;;9.97;3.30;;;;;;;;;;5452615;26;20270;-80
2024/04/22 05:45:35;;;;;;;7.40;3.27;;;;;;;;;;5452326;26;20216;-80
2024/04/22 05:48:03;;;;;;;7.33;3.20;;;;;;;;;;5451430;26;20233;-80
2024/04/22 05:50:30;;;;;;;8.40;3.13;;;;;;;;;;5451401;26;20228;-79
2024/04/22 05:52:58;;;;;;;6.23;2.63;;;;;;;;;;5451969;26;20300;-80
2024/04/22 05:55:27;;;;;;;10.10;3.30;;;;;;;;;;5452637;26;20231;-80
2024/04/22 05:57:56;;;;;;;6.60;3.27;;;;;;;;;;5470561;26;20226;-80
2024/04/22 06:00:25;;;;;;;10.83;3.33;;;;;;;;;;5488173;26;21078;-80
2024/04/22 06:02:51;;;;;;;5.73;2.97;;;;;;;;;;5488246;26;20222;-80
2024/04/22 06:05:20;;;;;;;6.23;2.70;;;;;;;;;;5487339;26;20779;-80
2024/04/22 06:07:47;;;;;;;7.47;2.70;;;;;;;;;;5488101;26;20265;-79
2024/04/22 06:10:16;;;;;;;9.47;2.67;;;;;;;;;;5486962;26;20224;-80
2024/04/22 06:12:42;;;;;;;8.33;2.43;;;;;;;;;;5488530;26;20225;-80
2024/04/22 06:15:13;;;;;;;8.50;2.70;;;;;;;;;;5457911;26;20728;-79
2024/04/22 06:17:40;;;;;;;8.40;2.67;;;;;;;;;;5457568;26;20609;-80
2024/04/22 06:20:11;;;;;;;7.40;2.60;;;;;;;;;;5487279;26;20239;-79
2024/04/22 06:22:38;;;;;;;7.47;2.43;;;;;;;;;;5488202;26;20230;-79
2024/04/22 06:25:07;;;;;;;6.90;2.53;;;;;;;;;;5488071;26;20242;-80
2024/04/22 06:27:33;;;;;;;7.73;2.27;;;;;;;;;;5488115;26;20223;-80
2024/04/22 06:30:02;;;;;;;6.83;2.67;;;;;;;;;;5488098;26;20234;-80
2024/04/22 06:32:34;;;;;;;6.67;2.30;;;;;;;;;;5487618;26;20340;-79
2024/04/22 06:35:03;;;;;;;5.37;2.13;;;;;;;;;;5487685;26;20270;-80
2024/04/22 06:37:30;;;;;;;6.23;2.30;;;;;;;;;;5487926;26;20277;-80
2024/04/22 06:39:58;;;;;;;5.07;2.13;;;;;;;;;;5487880;26;20239;-80
2024/04/22 06:42:25;;;;;;;7.07;2.43;;;;;;;;;;5519976;25;20238;-80
2024/04/22 06:44:54;;;;;;;7.73;2.03;;;;;;;;;;5524294;26;20717;-80
2024/04/22 06:47:20;;;;;;;6.47;2.40;;;;;;;;;;5524218;25;20285;-81
2024/04/22 06:49:51;;;;;;;6.30;2.17;;;;;;;;;;5525097;25;20226;-80
2024/04/22 06:52:17;;;;;;;6.60;2.30;;;;;;;;;;5524066;25;20222;-80
2024/04/22 06:54:46;;;;;;;5.63;2.23;;;;;;;;;;5524544;26;20230;-79
2024/04/22 06:57:12;;;;;;;4.00;1.90;;;;;;;;;;5524738;26;20221;-80
2024/04/22 06:59:42;;;;;;;5.70;2.40;;;;;;;;;;5523652;26;20234;-81
2024/04/22 07:02:08;;;;;;;5.90;2.00;;;;;;;;;;5523808;26;20722;-80
2024/04/22 07:04:37;;;;;;;4.30;2.10;;;;;;;;;;5524513;26;20233;-80
2024/04/22 07:07:06;;;;;;;3.13;2.00;;;;;;;;;;5524705;25;20264;-80
2024/04/22 07:09:35;;;;;;;4.68;2.00;;;;;;;;;;5523062;26;20241;-80
2024/04/22 07:12:01;;;;;;;3.90;1.60;;;;;;;;;;5522565;26;20218;-80
2024/04/22 07:14:30;;;;;;;3.00;1.67;;;;;;;;;;5521972;26;20231;-79
2024/04/22 07:16:58;;;;;;;3.15;1.70;;;;;;;;;;5522894;25;20261;-78
2024/04/22 07:19:27;;;;;;;5.15;2.08;;;;;;;;;;5521867;26;20229;-80
2024/04/22 07:21:53;;;;;;;3.42;1.67;;;;;;;;;;5521644;26;20222;-79
2024/04/22 07:24:24;;;;;;;6.22;1.88;;;;;;;;;;5522856;26;20698;-79
2024/04/22 07:26:51;;;;;;;7.90;3.08;;;;;;;;;;5522513;26;20758;-80
2024/04/22 07:29:20;;;;;;;7.65;1.92;;;;;;;;;;5522693;25;20298;-79
2024/04/22 07:31:47;;;;;;;10.07;6.75;;;;;;;;;;5523769;25;20597;-81
2024/04/22 07:34:16;;;;;;;10.02;8.38;;;;;;;;;;5523909;26;20226;-79
2024/04/22 07:36:45;;;;;;;7.05;4.18;;;;;;;;;;5523999;25;20589;-80
2024/04/22 07:39:17;;;;;;;5.53;3.50;;;;;;;;;;5523783;25;20234;-81
2024/04/22 07:41:46;;;;;;;32.05;23.83;;;;;;;;;;5523804;25;20281;-81
2024/04/22 07:44:15;;;;;;;8.80;5.50;;;;;;;;;;5523291;25;20230;-81
2024/04/22 07:46:41;;;;;;;3.20;1.80;;;;;;;;;;5523381;25;20257;-81
2024/04/22 07:49:13;;;;;;;4.70;2.03;;;;;;;;;;5523372;25;20230;-81
2024/04/22 07:51:39;;;;;;;5.47;2.13;;;;;;;;;;5523827;26;20222;-81
2024/04/22 07:54:09;;;;;;;6.45;2.25;;;;;;;;;;5523257;25;20264;-80
2024/04/22 07:56:35;;;;;;;5.30;1.88;;;;;;;;;;5523622;26;20222;-81
2024/04/22 07:59:09;;;;;;;5.53;2.13;;;;;;;;;;5523370;26;20792;-82
2024/04/22 08:01:35;;;;;;;4.00;1.70;;;;;;;;;;5523156;26;20299;-81
2024/04/22 08:04:05;;;;;;;5.30;1.90;;;;;;;;;;5523854;26;20234;-81
2024/04/22 08:06:38;;;;;;;3.80;1.80;;;;;;;;;;5523228;26;20222;-81
2024/04/22 08:09:04;;;;;;;3.92;1.92;;;;;;;;;;5523443;26;20334;-81
2024/04/22 08:11:33;;;;;;;3.78;1.70;;;;;;;;;;5523348;26;20615;-80
2024/04/22 08:14:00;;;;;;;2.55;1.90;;;;;;;;;;5520344;25;20645;-79
2024/04/22 08:16:31;;;;;;;5.60;2.17;;;;;;;;;;5522828;26;20614;-80
2024/04/22 08:18:57;;;;;;;6.07;3.60;;;;;;;;;;5522543;26;20711;-79
2024/04/22 08:21:26;;;;;;;9.43;2.93;;;;;;;;;;5523339;25;20230;-80
2024/04/22 08:23:52;;;;;;;9.47;3.50;;;;;;;;;;5523014;26;20730;-80
2024/04/22 08:26:21;;;;;;;14.93;10.20;;;;;;;;;;5523039;26;20230;-81
2024/04/22 08:28:47;;;;;;;9.07;2.80;;;;;;;;;;5485529;26;20977;-78
2024/04/22 08:31:16;;;;;;;4.73;2.83;;;;;;;;;;5504828;26;20238;-79
2024/04/22 08:33:45;;;;;;;3.87;1.80;;;;;;;;;;5523671;26;20273;-78
2024/04/22 08:36:15;;;;;;;6.97;2.20;;;;;;;;;;5526923;25;20222;-79
2024/04/22 08:38:42;;;;;;;4.43;2.20;;;;;;;;;;5526635;26;20222;-79
2024/04/22 08:41:15;;;;;;;3.30;2.27;;;;;;;;;;5526200;26;20241;-79
2024/04/22 08:43:42;;;;;;;5.90;2.27;;;;;;;;;;5526859;26;20265;-79
2024/04/22 08:46:10;;;;;;;6.13;2.43;;;;;;;;;;5525852;26;20295;-79
2024/04/22 08:48:38;;;;;;;7.47;2.60;;;;;;;;;;5503520;26;20231;-79
2024/04/22 08:51:10;;;;;;;5.33;2.30;;;;;;;;;;5479360;26;20286;-80
2024/04/22 08:53:36;;;;;;;5.03;2.40;;;;;;;;;;5452959;26;20236;-81
2024/04/22 08:56:05;;;;;;;3.60;2.00;;;;;;;;;;5452150;26;20236;-80
2024/04/22 08:58:31;;;;;;;6.97;2.60;;;;;;;;;;5505439;26;20273;-79
2024/04/22 09:01:00;;;;;;;6.10;2.20;;;;;;;;;;5489864;26;20299;-80
2024/04/22 09:03:26;;;;;;;4.37;2.53;;;;;;;;;;5494014;26;20234;-79
2024/04/22 09:05:55;;;;;;;4.27;2.50;;;;;;;;;;5489167;26;20270;-81
2024/04/22 09:08:24;;;;;;;5.00;2.37;;;;;;;;;;5489240;26;20574;-80
2024/04/22 09:10:57;;;;;;;5.53;2.37;;;;;;;;;;5498683;26;20765;-80
2024/04/22 09:13:23;;;;;;;5.40;2.53;;;;;;;;;;5511303;26;20231;-80
2024/04/22 09:15:56;;;;;;;5.33;2.37;;;;;;;;;;5509126;26;20262;-80
2024/04/22 09:18:22;;;;;;;3.90;2.33;;;;;;;;;;5515408;26;20276;-80
2024/04/22 09:20:53;;;;;;;3.83;2.60;;;;;;;;;;5514841;26;20611;-80
2024/04/22 09:23:19;;;;;;;5.23;2.40;;;;;;;;;;5502841;26;20786;-80
2024/04/22 09:25:51;;;;;;;4.93;2.40;;;;;;;;;;5505245;26;20739;-81
2024/04/22 09:28:18;;;;;;;4.00;2.13;;;;;;;;;;5526304;26;20265;-80
2024/04/22 09:30:48;;;;;;;6.17;2.20;;;;;;;;;;5526010;26;20238;-81
2024/04/22 09:33:18;;;;;;;3.67;1.83;;;;;;;;;;5525912;26;20273;-80
2024/04/22 09:35:47;;;;;;;4.20;2.27;;;;;;;;;;5525933;26;20238;-80
2024/04/22 09:38:14;;;;;;;6.53;2.70;;;;;;;;;;5525391;26;20226;-80
2024/04/22 09:40:43;;;;;;;4.27;2.27;;;;;;;;;;5501354;25;20250;-79
2024/04/22 09:43:12;;;;;;;4.13;2.37;;;;;;;;;;5535746;25;20233;-80
2024/04/22 09:45:41;;;;;;;3.83;1.80;;;;;;;;;;5541195;25;20350;-80
2024/04/22 09:48:08;;;;;;;3.87;1.80;;;;;;;;;;5525828;25;20276;-80
2024/04/22 09:50:37;;;;;;;2.33;1.60;;;;;;;;;;5529406;25;20237;-80
2024/04/22 09:53:04;;;;;;;3.20;1.70;;;;;;;;;;5535550;25;20230;-78
2024/04/22 09:55:33;;;;;;;4.10;2.00;;;;;;;;;;5526942;25;20342;-78
2024/04/22 09:58:00;;;;;;;3.73;2.00;;;;;;;;;;5526119;25;20230;-78
2024/04/22 10:00:32;;;;;;;2.63;1.70;;;;;;;;;;5530742;25;20267;-79
2024/04/22 10:02:58;;;;;;;5.50;2.30;;;;;;;;;;5519626;25;20281;-79
2024/04/22 10:05:27;;;;;;;3.85;1.92;;;;;;;;;;5519496;25;20230;-79
2024/04/22 10:07:53;;;;;;;5.00;2.10;;;;;;;;;;5518224;26;20276;-78
2024/04/22 10:10:23;;;;;;;4.55;1.85;;;;;;;;;;5520647;26;20246;-79
2024/04/22 10:12:49;;;;;;;3.70;1.60;;;;;;;;;;5518795;25;20226;-80
2024/04/22 10:15:19;;;;;;;2.50;1.67;;;;;;;;;;5528200;25;20318;-79
2024/04/22 10:17:48;;;;;;;2.97;1.60;;;;;;;;;;5541627;25;20229;-81
2024/04/22 10:20:17;;;;;;;5.77;1.90;;;;;;;;;;5530258;25;20274;-80
2024/04/22 10:22:43;;;;;;;4.97;1.80;;;;;;;;;;5521045;25;20231;-80
2024/04/22 10:25:12;;;;;;;2.43;1.80;;;;;;;;;;5557883;25;20229;-80
2024/04/22 10:27:39;;;;;;;3.13;2.10;;;;;;;;;;5561899;25;20264;-80
2024/04/22 10:30:08;;;;;;;3.10;2.03;;;;;;;;;;5561940;25;20264;-79
2024/04/22 10:32:35;;;;;;;5.53;2.00;;;;;;;;;;5562210;25;20268;-80
2024/04/22 10:35:07;;;;;;;3.63;2.40;;;;;;;;;;5561785;25;20221;-80
2024/04/22 10:37:33;;;;;;;2.20;2.00;;;;;;;;;;5561498;25;20264;-81
2024/04/22 10:40:02;;;;;;;2.93;1.97;;;;;;;;;;5562184;25;20583;-80
2024/04/22 10:42:28;;;;;;;2.30;2.00;;;;;;;;;;5562416;25;20275;-80
2024/04/22 10:44:57;;;;;;;2.87;2.07;;;;;;;;;;5561804;25;20289;-80
2024/04/22 10:47:24;;;;;;;3.17;2.30;;;;;;;;;;5561204;25;20811;-80
2024/04/22 10:49:52;;;;;;;3.50;2.10;;;;;;;;;;5561694;25;20599;-79
2024/04/22 10:52:23;;;;;;;2.87;1.90;;;;;;;;;;5554385;25;20226;-80
2024/04/22 10:54:52;;;;;;;1.80;1.70;;;;;;;;;;5515075;25;20280;-80
2024/04/22 10:57:19;;;;;;;2.63;2.13;;;;;;;;;;5518247;26;20281;-79
2024/04/22 10:59:47;;;;;;;4.27;2.00;;;;;;;;;;5521969;26;20276;-80
2024/04/22 11:02:14;;;;;;;3.93;2.27;;;;;;;;;;5518567;26;20234;-79
2024/04/22 11:04:43;;;;;;;3.10;2.10;;;;;;;;;;5519399;26;20288;-79
2024/04/22 11:07:10;;;;;;;3.20;1.90;;;;;;;;;;5508563;25;20269;-80
2024/04/22 11:09:41;;;;;;;3.97;2.10;;;;;;;;;;5520333;26;20245;-80
2024/04/22 11:12:08;;;;;;;2.17;1.97;;;;;;;;;;5518143;26;20238;-80
2024/04/22 11:14:37;;;;;;;3.80;2.23;;;;;;;;;;5519861;25;20833;-79
2024/04/22 11:17:03;;;;;;;3.27;2.10;;;;;;;;;;5522725;25;20277;-79
2024/04/22 11:19:32;;;;;;;3.87;2.23;;;;;;;;;;5525958;25;20250;-79
2024/04/22 11:21:58;;;;;;;5.17;2.00;;;;;;;;;;5532433;25;20226;-79
2024/04/22 11:24:27;;;;;;;4.87;2.43;;;;;;;;;;5529710;25;20246;-80
2024/04/22 11:26:56;;;;;;;3.53;1.93;;;;;;;;;;5524485;25;20273;-80
2024/04/22 11:29:26;;;;;;;3.70;2.20;;;;;;;;;;5531276;25;20257;-80
2024/04/22 11:31:53;;;;;;;2.80;2.20;;;;;;;;;;5527504;25;20784;-80
2024/04/22 11:34:22;;;;;;;3.60;2.20;;;;;;;;;;5520545;25;20674;-78
2024/04/22 11:36:52;;;;;;;4.18;2.03;;;;;;;;;;5521018;26;20760;-80
2024/04/22 11:39:21;;;;;;;3.33;1.85;;;;;;;;;;5523689;25;20735;-76
2024/04/22 11:41:48;;;;;;;78.38;55.00;;;;;;;;;;5499345;25;20231;-76
2024/04/22 11:44:19;;;;;;;5.85;4.22;;;;;;;;;;5481031;26;20243;-77
2024/04/22 11:46:47;;;;;;;9.38;3.10;;;;;;;;;;5492151;26;20227;-77
2024/04/22 11:49:16;;;;;;;3.63;2.30;;;;;;;;;;5499976;26;20246;-77
2024/04/22 11:51:42;;;;;;;19.63;9.52;;;;;;;;;;5490359;26;20231;-77
2024/04/22 11:54:11;;;;;;;42.67;12.40;;;;;;;;;;5498796;26;20345;-78
2024/04/22 11:56:40;;;;;;;4.07;2.63;;;;;;;;;;5495610;26;20227;-77
2024/04/22 11:59:09;;;;;;;31.93;7.80;;;;;;;;;;5499959;26;20592;-76
2024/04/22 12:01:38;;;;;;;6.85;2.40;;;;;;;;;;5498652;26;20294;-77
2024/04/22 12:04:07;;;;;;;3.88;2.30;;;;;;;;;;5492663;26;20255;-77
2024/04/22 12:06:33;;;;;;;3.92;1.95;;;;;;;;;;5487428;26;20234;-77
2024/04/22 12:09:02;;;;;;;2.72;1.88;;;;;;;;;;5484117;26;20723;-78
2024/04/22 12:11:29;;;;;;;3.08;1.73;;;;;;;;;;5491005;26;20735;-77
2024/04/22 12:13:57;;;;;;;2.65;1.83;;;;;;;;;;5484803;26;20786;-80
2024/04/22 12:16:24;;;;;;;3.53;1.70;;;;;;;;;;5488929;26;20302;-79
2024/04/22 12:18:55;;;;;;;3.10;1.75;;;;;;;;;;5487422;26;20235;-79
2024/04/22 12:21:21;;;;;;;2.28;1.60;;;;;;;;;;5506090;26;20676;-79
2024/04/22 12:23:50;;;;;;;2.65;1.60;;;;;;;;;;5506467;26;20326;-80
2024/04/22 12:26:17;;;;;;;3.42;1.58;;;;;;;;;;5509113;26;20595;-80
2024/04/22 12:28:45;;;;;;;3.55;1.60;;;;;;;;;;5494401;26;20243;-80
2024/04/22 12:31:12;;;;;;;4.00;1.80;;;;;;;;;;5491561;26;20273;-80
2024/04/22 12:33:41;;;;;;;2.27;1.70;;;;;;;;;;5503869;26;20239;-79
2024/04/22 12:36:10;;;;;;;3.17;1.93;;;;;;;;;;5488802;26;20250;-80
2024/04/22 12:38:38;;;;;;;3.17;1.80;;;;;;;;;;5489805;26;20242;-80
2024/04/22 12:41:05;;;;;;;3.03;1.63;;;;;;;;;;5495550;26;20604;-79
2024/04/22 12:43:34;;;;;;;2.60;1.48;;;;;;;;;;5490425;26;20754;-79
2024/04/22 12:46:00;;;;;;;2.88;1.63;;;;;;;;;;5462872;26;20275;-79
2024/04/22 12:51:16;;;;;;;3.05;1.58;;;;;;;;;;5455916;26;20282;-80
2024/04/22 12:53:45;;;;;;;3.47;1.60;;;;;;;;;;5453261;26;20582;-80
2024/04/22 12:56:14;;;;;;;1.92;1.40;;;;;;;;;;5453457;26;20225;-80
2024/04/22 12:58:43;;;;;;;4.63;1.85;;;;;;;;;;5453833;26;20266;-80
2024/04/22 13:01:12;;;;;;;4.40;1.75;;;;;;;;;;5453183;26;20232;-80
2024/04/22 13:03:41;;;;;;;2.42;1.60;;;;;;;;;;5453581;26;20231;-80
2024/04/22 13:06:10;;;;;;;3.47;1.70;;;;;;;;;;5453613;26;20266;-79
2024/04/22 13:08:38;;;;;;;3.20;1.45;;;;;;;;;;5471739;26;20235;-81
2024/04/22 13:11:07;;;;;;;2.00;1.30;;;;;;;;;;5480626;26;20246;-82
2024/04/22 13:13:36;;;;;;;2.92;1.80;;;;;;;;;;5489022;26;20716;-80
2024/04/22 13:16:05;;;;;;;2.45;1.65;;;;;;;;;;5488786;26;20219;-80
2024/04/22 13:18:34;;;;;;;2.38;1.90;;;;;;;;;;5496472;26;20995;-80
2024/04/22 13:21:03;;;;;;;2.97;2.30;;;;;;;;;;5496199;26;20229;-79
2024/04/22 13:23:29;;;;;;;3.43;1.93;;;;;;;;;;5506112;26;20223;-81
2024/04/22 13:26:01;;;;;;;4.78;2.40;;;;;;;;;;5504244;26;20617;-80
2024/04/22 13:28:27;;;;;;;2.70;2.40;;;;;;;;;;5502233;26;20231;-80
2024/04/22 13:30:56;;;;;;;3.27;2.40;;;;;;;;;;5503636;26;20307;-78
2024/04/22 13:33:22;;;;;;;4.13;2.23;;;;;;;;;;5503906;26;20231;-80
2024/04/22 13:35:51;;;;;;;4.70;2.47;;;;;;;;;;5507086;26;20337;-80
2024/04/22 13:38:18;;;;;;;3.47;2.10;;;;;;;;;;5508844;26;20231;-79
2024/04/22 13:40:46;;;;;;;2.90;2.10;;;;;;;;;;5525299;25;20238;-80
2024/04/22 13:43:15;;;;;;;4.20;1.90;;;;;;;;;;5526083;25;20273;-80
2024/04/22 13:45:44;;;;;;;2.40;1.90;;;;;;;;;;5525468;25;20230;-79
2024/04/22 13:48:10;;;;;;;2.70;2.30;;;;;;;;;;5525823;25;20222;-80
2024/04/22 13:50:39;;;;;;;3.73;2.33;;;;;;;;;;5517162;26;20239;-80
2024/04/22 13:53:05;;;;;;;3.90;2.20;;;;;;;;;;5488830;26;20785;-80
2024/04/22 13:55:36;;;;;;;3.00;1.97;;;;;;;;;;5488324;26;20239;-81
2024/04/22 13:58:02;;;;;;;3.57;2.27;;;;;;;;;;5500962;26;20270;-81
2024/04/22 14:00:34;;;;;;;3.17;2.07;;;;;;;;;;5497739;26;20337;-80
2024/04/22 14:03:01;;;;;;;2.90;2.00;;;;;;;;;;5508262;26;20282;-79
2024/04/22 14:05:30;;;;;;;2.93;2.20;;;;;;;;;;5493202;26;20244;-79
2024/04/22 14:07:56;;;;;;;3.00;2.43;;;;;;;;;;5488448;26;20223;-80
2024/04/22 14:10:25;;;;;;;2.60;2.30;;;;;;;;;;5488837;26;20779;-80
2024/04/22 14:12:51;;;;;;;2.87;2.37;;;;;;;;;;5488620;26;20227;-80
2024/04/22 14:15:20;;;;;;;2.97;2.10;;;;;;;;;;5488646;26;20661;-79
2024/04/22 14:17:49;;;;;;;3.23;2.10;;;;;;;;;;5488224;26;20224;-79
2024/04/22 14:20:18;;;;;;;3.53;1.93;;;;;;;;;;5488021;26;20636;-78
2024/04/22 14:22:44;;;;;;;6.00;2.30;;;;;;;;;;5485118;26;20223;-80
2024/04/22 14:25:13;;;;;;;4.07;1.80;;;;;;;;;;5507243;26;20766;-80
2024/04/22 14:27:39;;;;;;;2.97;2.22;;;;;;;;;;5505829;26;20280;-80
2024/04/22 14:30:09;;;;;;;4.05;2.05;;;;;;;;;;5488068;26;20324;-80
2024/04/22 14:32:35;;;;;;;2.38;2.10;;;;;;;;;;5486552;26;20223;-79
2024/04/22 14:35:07;;;;;;;4.13;1.90;;;;;;;;;;5487753;26;20231;-78
2024/04/22 14:37:34;;;;;;;3.60;2.00;;;;;;;;;;5487752;26;20595;-81
2024/04/22 14:40:03;;;;;;;3.17;2.10;;;;;;;;;;5451841;26;20232;-81
2024/04/22 14:42:29;;;;;;;3.97;2.10;;;;;;;;;;5520294;26;20277;-80
2024/04/22 14:44:58;;;;;;;4.50;2.00;;;;;;;;;;5524963;26;20306;-81
2024/04/22 14:47:24;;;;;;;5.00;1.67;;;;;;;;;;5504874;25;20735;-80
2024/04/22 14:49:53;;;;;;;3.10;1.93;;;;;;;;;;5523971;26;20238;-81
2024/04/22 14:52:25;;;;;;;2.57;2.03;;;;;;;;;;5501719;26;20232;-79
2024/04/22 14:54:51;;;;;;;3.37;2.23;;;;;;;;;;5520265;26;20276;-78
2024/04/22 14:57:20;;;;;;;3.37;2.30;;;;;;;;;;5524127;26;20634;-79